Time;durP1;ratioP1;P1;durP2;ratioP2;P2;SDS_P1;SDS_P2;PMS_P1;PMS_P2;Temp;Humidity;BMP_temperature;BMP_pressure;BME280_temperature;BME280_humidity;BME280_pressure;Samples;Min_cycle;Max_cycle;Signal;HPM_P1;HPM_P2
2023/04/19 00:02:18;;;;;;;15.77;10.73;;;;;;;8.72;100.00;102536.47;4897927;29;20402;-93
2023/04/19 00:04:46;;;;;;;14.20;9.35;;;;;;;8.68;100.00;102541.38;4872712;29;20028;-93
2023/04/19 00:07:13;;;;;;;16.05;11.00;;;;;;;8.67;100.00;102533.56;4871280;29;20411;-93
2023/04/19 00:09:38;;;;;;;14.07;11.10;;;;;;;8.72;100.00;102534.59;4895221;29;20041;-91
2023/04/19 00:12:05;;;;;;;15.60;10.57;;;;;;;8.70;100.00;102522.47;4900109;29;20327;-93
2023/04/19 00:14:31;;;;;;;17.23;10.70;;;;;;;8.75;100.00;102528.06;4890823;29;20206;-93
2023/04/19 00:16:58;;;;;;;15.10;10.83;;;;;;;8.74;100.00;102529.06;4893796;29;20500;-92
2023/04/19 00:19:23;;;;;;;15.63;10.87;;;;;;;8.77;100.00;102526.81;4899216;29;20300;-92
2023/04/19 00:21:50;;;;;;;16.50;10.32;;;;;;;8.79;100.00;102518.56;4899508;29;20493;-91
2023/04/19 00:24:17;;;;;;;15.37;10.93;;;;;;;8.82;100.00;102517.38;4898221;29;20044;-93
2023/04/19 00:26:43;;;;;;;16.25;11.15;;;;;;;8.82;99.87;102512.81;4898777;29;20040;-92
2023/04/19 00:29:08;;;;;;;18.92;11.57;;;;;;;8.85;99.99;102517.78;4898905;29;20412;-92
2023/04/19 00:31:33;;;;;;;13.97;9.17;;;;;;;8.96;99.70;102518.16;4883710;29;20088;-92
2023/04/19 00:33:59;;;;;;;13.43;9.40;;;;;;;8.97;99.01;102517.97;4901736;29;20100;-92
2023/04/19 00:36:26;;;;;;;17.63;11.37;;;;;;;8.98;99.40;102516.97;4901814;29;20088;-92
2023/04/19 00:38:51;;;;;;;17.65;10.45;;;;;;;8.92;99.60;102513.25;4902290;29;20024;-91
2023/04/19 00:41:16;;;;;;;15.80;11.07;;;;;;;8.91;99.85;102508.94;4900815;29;20036;-93
2023/04/19 00:43:42;;;;;;;15.33;10.83;;;;;;;8.92;99.52;102510.59;4900080;29;20028;-92
2023/04/19 00:46:07;;;;;;;15.87;11.70;;;;;;;8.94;99.75;102511.22;4882362;29;20107;-93
2023/04/19 00:48:35;;;;;;;17.40;10.90;;;;;;;8.98;99.60;102505.41;4900288;29;20029;-93
2023/04/19 00:51:01;;;;;;;15.97;11.17;;;;;;;9.02;99.40;102518.19;4899737;29;20032;-93
2023/04/19 00:53:27;;;;;;;15.85;10.15;;;;;;;9.02;99.65;102512.84;4903966;29;20040;-93
2023/04/19 00:55:56;;;;;;;18.75;11.90;;;;;;;9.00;100.00;102516.75;4904869;29;20028;-92
2023/04/19 00:58:22;;;;;;;16.92;12.30;;;;;;;8.98;100.00;102511.63;4904813;29;20100;-93
2023/04/19 01:00:47;;;;;;;18.25;11.02;;;;;;;9.02;100.00;102518.19;4901061;29;20036;-93
2023/04/19 01:03:13;;;;;;;17.60;11.53;;;;;;;9.00;100.00;102514.06;4891158;29;20044;-92
2023/04/19 01:05:40;;;;;;;18.07;11.87;;;;;;;9.01;100.00;102505.03;4882815;29;20032;-93
2023/04/19 01:08:07;;;;;;;15.83;11.17;;;;;;;9.07;100.00;102506.88;4882093;29;20308;-94
2023/04/19 01:10:34;;;;;;;16.35;11.10;;;;;;;9.04;100.00;102504.63;4889349;29;20063;-93
2023/04/19 01:13:00;;;;;;;18.08;11.73;;;;;;;9.01;100.00;102519.22;4882963;29;20020;-93
2023/04/19 01:15:26;;;;;;;17.55;10.93;;;;;;;9.04;100.00;102512.63;4885446;29;20111;-92
2023/04/19 01:17:51;;;;;;;18.90;11.83;;;;;;;9.06;100.00;102515.94;4905565;29;20048;-91
2023/04/19 01:20:17;;;;;;;17.05;11.52;;;;;;;8.99;100.00;102507.06;4905000;29;20040;-91
2023/04/19 01:22:42;;;;;;;17.53;11.27;;;;;;;9.03;100.00;102513.66;4912238;29;20113;-91
2023/04/19 01:25:09;;;;;;;18.93;11.60;;;;;;;9.06;100.00;102507.91;4915326;29;20088;-93
2023/04/19 01:27:34;;;;;;;17.25;11.20;;;;;;;9.05;100.00;102512.41;4903478;29;20037;-92
2023/04/19 01:29:59;;;;;;;19.40;11.95;;;;;;;9.03;100.00;102514.50;4896208;29;20043;-91
2023/04/19 01:32:25;;;;;;;18.60;11.90;;;;;;;9.00;100.00;102511.41;4912659;29;20028;-92
2023/04/19 01:34:51;;;;;;;18.53;10.90;;;;;;;9.00;100.00;102503.38;4908056;29;20033;-91
2023/04/19 01:37:17;;;;;;;17.75;11.45;;;;;;;9.02;100.00;102514.69;4905877;29;20092;-92
2023/04/19 01:39:42;;;;;;;17.73;11.10;;;;;;;9.05;100.00;102511.59;4903548;29;20124;-92
2023/04/19 01:42:07;;;;;;;20.45;11.55;;;;;;;8.97;100.00;102506.44;4899656;29;20047;-93
2023/04/19 01:44:33;;;;;;;19.87;11.83;;;;;;;9.03;100.00;102511.00;4898128;29;20553;-92
2023/04/19 01:46:58;;;;;;;20.53;11.67;;;;;;;9.00;100.00;102509.56;4900099;29;20064;-91
2023/04/19 01:49:25;;;;;;;22.33;12.27;;;;;;;9.04;100.00;102497.41;4890293;29;20032;-92
2023/04/19 01:51:50;;;;;;;18.73;11.37;;;;;;;9.01;100.00;102505.84;4893086;29;20734;-92
2023/04/19 01:54:16;;;;;;;18.48;11.18;;;;;;;9.00;100.00;102503.38;4894370;29;20029;-91
2023/04/19 01:56:41;;;;;;;16.80;11.77;;;;;;;9.05;100.00;102506.25;4892038;29;20029;-92
2023/04/19 01:59:06;;;;;;;20.63;11.37;;;;;;;8.99;100.00;102502.56;4896636;29;20438;-92
2023/04/19 02:01:32;;;;;;;20.03;11.33;;;;;;;8.96;100.00;102494.94;4881606;29;20900;-92
2023/04/19 02:03:57;;;;;;;16.30;9.53;;;;;;;9.08;100.00;102495.16;4896472;29;20020;-91
2023/04/19 02:06:22;;;;;;;18.70;11.00;;;;;;;9.04;100.00;102491.25;4894404;29;20037;-91
2023/04/19 02:08:48;;;;;;;17.33;11.67;;;;;;;9.04;100.00;102488.56;4897193;29;20288;-92
2023/04/19 02:11:13;;;;;;;15.30;10.53;;;;;;;9.05;100.00;102487.53;4897344;29;20397;-91
2023/04/19 02:13:40;;;;;;;17.97;11.40;;;;;;;9.12;100.00;102491.03;4898514;29;20128;-91
2023/04/19 02:16:08;;;;;;;19.00;11.93;;;;;;;9.11;100.00;102493.91;4884810;29;20118;-91
2023/04/19 02:18:37;;;;;;;19.45;11.23;;;;;;;9.11;100.00;102488.56;4913032;29;20568;-92
2023/04/19 02:21:03;;;;;;;19.05;11.65;;;;;;;9.15;100.00;102485.25;4902974;29;20036;-91
2023/04/19 02:23:28;;;;;;;19.98;11.75;;;;;;;9.09;100.00;102481.56;4909798;29;20084;-91
2023/04/19 02:25:54;;;;;;;17.70;11.73;;;;;;;9.13;100.00;102481.97;4895125;29;20049;-92
2023/04/19 02:28:20;;;;;;;18.23;11.57;;;;;;;9.15;100.00;102484.44;4892532;29;20297;-92
2023/04/19 02:30:45;;;;;;;23.43;11.70;;;;;;;9.14;100.00;102482.81;4896358;29;20029;-92
2023/04/19 02:33:11;;;;;;;20.42;12.13;;;;;;;9.13;100.00;102478.47;4897473;29;20039;-91
2023/04/19 02:35:36;;;;;;;19.33;11.67;;;;;;;9.14;100.00;102478.25;4888313;29;20543;-92
2023/04/19 02:38:03;;;;;;;18.52;11.93;;;;;;;9.18;100.00;102479.50;4897118;29;20024;-91
2023/04/19 02:40:28;;;;;;;18.97;11.10;;;;;;;9.21;100.00;102488.97;4899262;29;20032;-91
2023/04/19 02:42:53;;;;;;;17.02;10.60;;;;;;;9.26;100.00;102486.47;4898748;29;20021;-93
2023/04/19 02:45:19;;;;;;;19.43;11.43;;;;;;;9.23;100.00;102486.88;4899614;29;20060;-91
2023/04/19 02:47:45;;;;;;;16.13;10.63;;;;;;;9.19;100.00;102474.97;4907803;29;20607;-90
2023/04/19 02:50:11;;;;;;;19.52;11.27;;;;;;;9.28;100.00;102489.78;4897489;29;20037;-91
2023/04/19 02:52:36;;;;;;;18.58;12.07;;;;;;;9.24;100.00;102486.69;4893816;29;20029;-91
2023/04/19 02:55:03;;;;;;;16.97;10.33;;;;;;;9.23;100.00;102484.22;4906806;29;20029;-92
2023/04/19 02:57:29;;;;;;;17.15;11.18;;;;;;;9.24;100.00;102494.72;4912516;29;20057;-92
2023/04/19 02:59:54;;;;;;;16.77;10.33;;;;;;;9.24;100.00;102488.53;4908586;29;20037;-91
2023/04/19 03:02:20;;;;;;;16.05;10.57;;;;;;;9.22;100.00;102486.09;4910104;29;20483;-92
2023/04/19 03:04:46;;;;;;;16.70;11.37;;;;;;;9.17;100.00;102480.53;4912303;29;20036;-93
2023/04/19 03:07:11;;;;;;;16.73;9.82;;;;;;;9.21;100.00;102487.13;4897316;29;20033;-92
2023/04/19 03:09:37;;;;;;;15.33;10.60;;;;;;;9.20;100.00;102484.66;4899148;29;20037;-92
2023/04/19 03:12:03;;;;;;;15.48;10.63;;;;;;;9.16;100.00;102481.56;4893696;29;20544;-91
2023/04/19 03:14:28;;;;;;;18.87;10.60;;;;;;;9.21;100.00;102489.78;4879072;29;20598;-92
2023/04/19 03:16:53;;;;;;;21.60;11.27;;;;;;;9.15;100.00;102485.25;4895081;29;20029;-90
2023/04/19 03:19:20;;;;;;;18.60;10.98;;;;;;;9.15;100.00;102482.59;4895288;29;20834;-91
2023/04/19 03:21:46;;;;;;;20.40;11.17;;;;;;;9.14;100.00;102488.16;4896933;29;20028;-91
2023/04/19 03:24:11;;;;;;;18.27;11.13;;;;;;;9.13;100.00;102486.50;4896426;29;20035;-90
2023/04/19 03:26:37;;;;;;;18.77;11.30;;;;;;;9.06;100.00;102487.31;4897396;29;20033;-91
2023/04/19 03:29:02;;;;;;;15.73;10.93;;;;;;;9.12;100.00;102485.69;4896666;29;20021;-91
2023/04/19 03:31:27;;;;;;;16.10;10.82;;;;;;;9.09;100.00;102478.09;4895024;29;20492;-91
2023/04/19 03:33:53;;;;;;;14.40;10.33;;;;;;;9.01;100.00;102464.91;4895300;29;20041;-90
2023/04/19 03:36:18;;;;;;;19.17;10.53;;;;;;;9.06;100.00;102473.16;4897000;29;20037;-90
2023/04/19 03:38:44;;;;;;;15.13;9.97;;;;;;;9.06;100.00;102475.81;4899326;29;20028;-92
2023/04/19 03:41:24;;;;;;;16.63;9.95;;;;;;;9.06;100.00;102473.16;4909616;29;20045;-91
2023/04/19 03:43:49;;;;;;;13.57;9.93;;;;;;;9.05;100.00;102477.66;4901589;29;20059;-92
2023/04/19 03:46:19;;;;;;;16.67;10.17;;;;;;;9.06;100.00;102467.78;4920129;29;20272;-91
2023/04/19 03:48:44;;;;;;;16.10;8.70;;;;;;;8.93;100.00;102458.75;4892603;29;20025;-92
2023/04/19 03:51:09;;;;;;;16.00;9.40;;;;;;;9.01;100.00;102467.59;4911895;29;20023;-91
2023/04/19 03:53:35;;;;;;;17.90;9.77;;;;;;;9.03;100.00;102471.72;4923604;29;20037;-92
2023/04/19 03:56:01;;;;;;;17.27;9.80;;;;;;;9.02;100.00;102469.22;4923591;29;20048;-93
2023/04/19 03:58:27;;;;;;;13.50;8.38;;;;;;;9.04;100.00;102476.00;4923026;29;20033;-92
2023/04/19 04:00:53;;;;;;;17.25;9.60;;;;;;;8.99;100.00;102475.81;4919299;29;20088;-92
2023/04/19 04:03:18;;;;;;;16.20;9.83;;;;;;;8.97;100.00;102475.22;4922823;29;20037;-94
2023/04/19 04:05:44;;;;;;;12.17;9.13;;;;;;;8.97;100.00;102474.38;4923270;29;20025;-96
2023/04/19 04:08:09;;;;;;;13.23;9.45;;;;;;;8.93;100.00;102477.47;4903758;29;20552;-93
2023/04/19 04:10:35;;;;;;;17.67;9.80;;;;;;;8.93;100.00;102484.66;4900140;29;20116;-94
2023/04/19 04:13:00;;;;;;;15.70;10.27;;;;;;;8.87;100.00;102475.63;4900230;29;20076;-91
2023/04/19 04:15:25;;;;;;;15.83;9.47;;;;;;;8.87;100.00;102482.81;4883135;29;20498;-92
2023/04/19 04:17:51;;;;;;;12.13;8.93;;;;;;;8.79;100.00;102470.47;4884498;29;20052;-93
2023/04/19 04:20:16;;;;;;;13.75;9.30;;;;;;;8.75;100.00;102475.41;4894075;29;20033;-92
2023/04/19 04:22:42;;;;;;;16.00;9.80;;;;;;;8.67;100.00;102477.44;4918991;29;20044;-92
2023/04/19 04:25:11;;;;;;;14.50;9.20;;;;;;;8.60;100.00;102472.09;4919540;29;20036;-92
2023/04/19 04:27:38;;;;;;;15.10;9.18;;;;;;;8.47;100.00;102470.19;4921459;29;20116;-91
2023/04/19 04:30:05;;;;;;;15.73;8.70;;;;;;;8.43;100.00;102477.81;4921180;29;20036;-93
2023/04/19 04:32:34;;;;;;;13.40;8.83;;;;;;;8.38;100.00;102476.78;4909606;29;20284;-91
2023/04/19 04:35:09;;;;;;;13.18;8.95;;;;;;;8.34;100.00;102485.19;4922158;29;20024;-92
2023/04/19 04:37:35;;;;;;;15.23;9.10;;;;;;;8.32;100.00;102481.91;4920104;29;20092;-88
2023/04/19 04:40:03;;;;;;;14.55;8.75;;;;;;;8.33;100.00;102483.53;4920180;29;20035;-88
2023/04/19 04:42:30;;;;;;;12.23;8.70;;;;;;;8.30;100.00;102478.59;4921602;29;20040;-89
2023/04/19 04:44:56;;;;;;;14.85;8.82;;;;;;;8.28;100.00;102479.84;4919840;29;20025;-90
2023/04/19 04:47:22;;;;;;;10.40;8.10;;;;;;;8.32;100.00;102487.25;4915963;29;20019;-90
2023/04/19 04:49:47;;;;;;;12.45;7.82;;;;;;;8.22;100.00;102476.09;4893964;29;20056;-91
2023/04/19 04:52:13;;;;;;;14.27;8.40;;;;;;;8.22;100.00;102477.97;4900154;29;20021;-91
2023/04/19 04:54:38;;;;;;;12.00;7.70;;;;;;;8.08;100.00;102482.44;4901642;29;20021;-91
2023/04/19 04:57:03;;;;;;;11.30;7.47;;;;;;;8.07;100.00;102478.09;4881459;29;20409;-90
2023/04/19 04:59:28;;;;;;;11.77;7.20;;;;;;;7.91;100.00;102493.47;4880079;29;20029;-90
2023/04/19 05:01:54;;;;;;;12.23;7.37;;;;;;;7.85;100.00;102496.94;4892031;29;20096;-91
2023/04/19 05:04:19;;;;;;;10.73;7.20;;;;;;;7.77;100.00;102489.09;4914136;29;20300;-93
2023/04/19 05:06:45;;;;;;;14.43;6.77;;;;;;;7.79;100.00;102492.38;4900775;29;20044;-91
2023/04/19 05:09:10;;;;;;;11.33;7.00;;;;;;;7.65;100.00;102492.31;4910348;29;20047;-91
2023/04/19 05:11:36;;;;;;;9.25;6.68;;;;;;;7.70;100.00;102491.72;4907518;29;20036;-91
2023/04/19 05:14:02;;;;;;;13.63;6.87;;;;;;;7.58;100.00;102483.44;4893848;29;20025;-92
2023/04/19 05:16:27;;;;;;;11.80;6.90;;;;;;;7.51;100.00;102490.56;4880519;29;20457;-92
2023/04/19 05:18:54;;;;;;;10.10;6.93;;;;;;;7.45;100.00;102488.72;4883517;29;20064;-89
2023/04/19 05:21:20;;;;;;;14.07;7.03;;;;;;;7.42;100.00;102498.75;4895098;29;20787;-90
2023/04/19 05:23:45;;;;;;;12.23;7.03;;;;;;;7.49;100.00;102497.94;4894380;29;20028;-89
2023/04/19 05:26:13;;;;;;;13.70;7.17;;;;;;;7.50;100.00;102504.94;4899659;29;20024;-89
2023/04/19 05:28:39;;;;;;;11.45;7.03;;;;;;;7.46;100.00;102501.84;4884834;29;20043;-87
2023/04/19 05:36:15;;;;;;;9.18;6.00;;;;;;;7.58;100.00;102507.47;5204935;23;20056;-91
2023/04/19 05:38:40;;;;;;;13.47;6.90;;;;;;;7.46;100.00;102501.03;4881488;29;20033;-91
2023/04/19 05:41:07;;;;;;;11.10;6.93;;;;;;;7.44;100.00;102498.53;4908736;29;20028;-92
2023/04/19 05:43:32;;;;;;;8.88;6.35;;;;;;;7.52;100.00;102502.91;4908894;29;20388;-93
2023/04/19 05:45:57;;;;;;;13.27;6.40;;;;;;;7.52;100.00;102500.22;4917679;29;20032;-92
2023/04/19 05:48:24;;;;;;;11.57;6.87;;;;;;;7.52;100.00;102497.56;4909577;29;20032;-92
2023/04/19 05:50:51;;;;;;;9.10;6.07;;;;;;;7.58;100.00;102510.94;4915296;29;20029;-91
2023/04/19 05:53:16;;;;;;;10.18;6.03;;;;;;;7.58;100.00;102491.44;4919749;29;20040;-92
2023/04/19 05:55:43;;;;;;;12.17;6.30;;;;;;;7.69;100.00;102500.75;4904627;29;20025;-92
2023/04/19 05:58:08;;;;;;;10.60;6.85;;;;;;;7.65;100.00;102497.66;4917930;29;20540;-92
2023/04/19 06:00:34;;;;;;;11.70;7.20;;;;;;;7.69;100.00;102512.22;4912120;29;20032;-92
2023/04/19 06:02:59;;;;;;;13.32;6.60;;;;;;;7.70;100.00;102489.88;4910676;29;20034;-93
2023/04/19 06:05:24;;;;;;;9.63;6.70;;;;;;;7.83;100.00;102499.78;4909676;29;20041;-91
2023/04/19 06:07:50;;;;;;;9.63;6.50;;;;;;;8.05;100.00;102507.69;4913490;29;20040;-92
2023/04/19 06:10:16;;;;;;;12.60;6.47;;;;;;;8.22;100.00;102499.31;4915153;29;20115;-91
2023/04/19 06:12:41;;;;;;;11.20;5.90;;;;;;;8.40;100.00;102499.59;4896821;29;20583;-91
2023/04/19 06:15:07;;;;;;;8.73;6.17;;;;;;;8.60;100.00;102506.84;4904182;29;20551;-93
2023/04/19 06:17:32;;;;;;;8.27;5.63;;;;;;;8.86;99.67;102511.41;4920619;29;20104;-92
2023/04/19 06:22:33;;;;;;;9.50;5.88;;;;;;;8.98;96.59;102511.63;5691832;23;20063;-90
2023/04/19 06:24:59;;;;;;;7.20;4.77;;;;;;;9.06;94.32;102508.72;4891241;29;20028;-90
2023/04/19 06:27:31;;;;;;;9.07;5.47;;;;;;;9.00;95.33;102514.06;4902155;29;20087;-88
2023/04/19 06:29:59;;;;;;;7.78;5.60;;;;;;;9.07;94.27;102509.56;4900659;29;20039;-90
2023/04/19 06:32:26;;;;;;;6.47;5.22;;;;;;;9.04;91.29;102493.91;4874390;29;20028;-90
2023/04/19 06:34:51;;;;;;;9.77;5.45;;;;;;;9.12;91.74;102523.13;4895455;29;20033;-89
2023/04/19 06:37:18;;;;;;;7.73;5.37;;;;;;;9.23;90.56;102517.16;4863235;29;20142;-90
2023/04/19 06:39:43;;;;;;;7.75;5.20;;;;;;;9.39;88.76;102507.03;4878379;29;20497;-91
2023/04/19 06:42:08;;;;;;;9.87;5.10;;;;;;;9.46;88.79;102515.91;4885962;29;20036;-90
2023/04/19 06:44:34;;;;;;;8.60;5.43;;;;;;;9.52;86.38;102512.38;4878136;29;20120;-90
2023/04/19 06:46:59;;;;;;;8.73;5.70;;;;;;;9.40;85.51;102492.63;4881110;29;20009;-91
2023/04/19 06:49:24;;;;;;;6.57;4.67;;;;;;;9.48;86.50;102504.97;4880225;29;20431;-91
2023/04/19 06:51:50;;;;;;;7.60;4.30;;;;;;;9.43;84.77;102502.94;4881409;29;20052;-91
2023/04/19 06:54:16;;;;;;;5.50;4.80;;;;;;;9.38;83.00;102498.22;4878445;29;20037;-91
2023/04/19 06:56:44;;;;;;;7.85;4.90;;;;;;;9.36;83.35;102502.94;4864186;29;20040;-92
2023/04/19 06:59:11;;;;;;;8.05;5.55;;;;;;;9.42;82.17;102506.63;4880583;29;20053;-91
2023/04/19 07:01:39;;;;;;;15.13;5.47;;;;;;;9.39;82.00;102504.38;4880041;29;20097;-91
2023/04/19 07:04:07;;;;;;;8.73;5.03;;;;;;;9.44;82.00;102509.09;4864681;29;20083;-89
2023/04/19 07:06:33;;;;;;;5.60;4.78;;;;;;;9.44;79.83;102498.38;4884807;29;20057;-91
2023/04/19 07:09:00;;;;;;;8.43;5.20;;;;;;;9.47;80.99;102504.16;4882857;29;20040;-92
2023/04/19 07:11:26;;;;;;;6.70;4.23;;;;;;;9.49;80.62;102510.13;4867886;29;20294;-93
2023/04/19 07:13:52;;;;;;;5.65;4.30;;;;;;;9.62;77.48;102513.81;4882735;29;20060;-88
2023/04/19 07:16:17;;;;;;;6.63;4.63;;;;;;;9.60;78.09;102508.63;4870554;29;20034;-89
2023/04/19 07:18:45;;;;;;;9.85;4.60;;;;;;;9.67;77.72;102514.00;4904945;29;20565;-93
2023/04/19 07:21:10;;;;;;;7.63;4.30;;;;;;;9.69;77.19;102501.19;4893106;29;20029;-92
2023/04/19 07:23:36;;;;;;;7.87;4.53;;;;;;;9.66;76.46;102502.47;4901995;29;20063;-93
2023/04/19 07:26:01;;;;;;;10.27;4.87;;;;;;;9.66;75.31;102501.66;4896609;29;20017;-93
2023/04/19 07:28:30;;;;;;;10.70;5.00;;;;;;;9.71;75.28;102504.50;4900452;29;20371;-94
2023/04/19 07:30:56;;;;;;;6.07;4.50;;;;;;;9.79;74.87;102503.44;4893359;29;20044;-93
2023/04/19 07:33:23;;;;;;;8.67;4.33;;;;;;;9.80;73.72;102499.72;4888835;29;20025;-95
2023/04/19 07:35:49;;;;;;;8.43;4.85;;;;;;;9.89;74.46;102501.16;4887613;29;20033;-93
2023/04/19 07:38:14;;;;;;;6.85;4.70;;;;;;;9.92;74.09;102492.69;4887598;29;20033;-94
2023/04/19 08:03:58;;;;;;;5.40;3.75;;;;;;;10.50;68.89;102484.78;4562641;27;20052;-93
2023/04/19 08:06:25;;;;;;;7.60;4.67;;;;;;;10.58;70.34;102492.59;4926738;29;20039;-93
2023/04/19 08:08:51;;;;;;;10.55;4.40;;;;;;;10.65;68.10;102484.50;4919389;29;20080;-92
2023/04/19 08:11:16;;;;;;;7.20;4.23;;;;;;;10.67;69.32;102496.63;4924287;29;20028;-94
2023/04/19 08:13:41;;;;;;;6.77;5.10;;;;;;;10.79;68.78;102496.75;4922447;29;20440;-93
2023/04/19 08:16:07;;;;;;;8.87;4.47;;;;;;;10.92;66.76;102498.50;4916610;29;20163;-95
2023/04/19 08:18:33;;;;;;;8.53;4.53;;;;;;;10.90;64.97;102493.34;4919982;29;20335;-96
2023/04/19 08:20:58;;;;;;;7.00;4.83;;;;;;;10.96;65.35;102491.66;4917421;29;20653;-94
2023/04/19 08:23:23;;;;;;;7.27;4.27;;;;;;;11.13;65.36;102493.78;4921135;29;20332;-91
2023/04/19 08:25:49;;;;;;;9.63;5.00;;;;;;;11.18;65.17;102496.63;4920842;29;20020;-93
2023/04/19 08:28:15;;;;;;;9.60;4.40;;;;;;;11.27;63.82;102489.09;4919892;29;20058;-93
2023/04/19 08:30:41;;;;;;;7.97;4.60;;;;;;;11.31;64.66;102490.31;4903939;29;20035;-94
2023/04/19 08:33:07;;;;;;;7.77;4.27;;;;;;;11.44;63.43;102495.53;4921749;29;20520;-92
2023/04/19 08:35:34;;;;;;;7.03;4.10;;;;;;;11.54;62.50;102491.53;4920187;29;20028;-92
2023/04/19 08:37:59;;;;;;;5.77;4.20;;;;;;;11.57;59.56;102496.44;4922703;29;20028;-89
2023/04/19 08:40:25;;;;;;;5.65;4.32;;;;;;;11.33;58.72;102446.09;5076238;23;20079;-89
2023/04/19 08:42:50;;;;;;;5.70;4.40;;;;;;;11.60;58.69;102464.59;4926922;29;20064;-90
2023/04/19 08:45:38;;;;;;;8.70;4.80;;;;;;;11.87;61.51;102487.63;4922136;29;20452;-91
2023/04/19 08:48:05;;;;;;;5.82;4.45;;;;;;;12.04;59.10;102482.50;4921949;29;21495;-92
2023/04/19 08:50:31;;;;;;;7.50;4.75;;;;;;;12.10;57.65;102470.81;4928756;29;20047;-93
2023/04/19 08:53:00;;;;;;;6.93;4.40;;;;;;;12.20;56.61;102476.47;4927383;29;20103;-93
2023/04/19 08:55:29;;;;;;;6.07;4.82;;;;;;;12.28;56.74;102488.78;4920477;29;20123;-93
2023/04/19 08:57:55;;;;;;;9.13;4.38;;;;;;;12.33;56.14;102475.44;4913445;29;20079;-91
2023/04/19 09:00:21;;;;;;;9.60;3.93;;;;;;;12.30;56.09;102475.09;4914061;29;20444;-92
2023/04/19 09:02:48;;;;;;;6.33;3.53;;;;;;;12.45;55.28;102474.69;4908494;29;20306;-89
2023/04/19 09:05:14;;;;;;;4.30;3.55;;;;;;;12.32;55.40;102463.09;4901285;29;20508;-89
2023/04/19 09:07:41;;;;;;;7.37;3.57;;;;;;;12.45;53.85;102478.16;4890508;29;20060;-89
2023/04/19 09:10:09;;;;;;;5.90;3.80;;;;;;;12.52;53.93;102472.69;4910916;29;20307;-85
2023/04/19 09:12:36;;;;;;;5.38;3.45;;;;;;;12.64;53.12;102481.63;4916131;29;20071;-88
2023/04/19 09:15:03;;;;;;;5.53;3.50;;;;;;;12.69;53.81;102475.53;4917570;29;20050;-88
2023/04/19 09:17:30;;;;;;;11.02;3.55;;;;;;;12.63;53.77;102454.94;4925707;29;20024;-88
2023/04/19 09:19:56;;;;;;;4.15;3.20;;;;;;;12.81;51.22;102462.91;4923536;29;20111;-88
2023/04/19 09:22:22;;;;;;;7.82;3.30;;;;;;;12.91;50.85;102472.28;4915645;29;20039;-89
2023/04/19 09:24:47;;;;;;;5.37;3.07;;;;;;;13.00;48.56;102481.63;4894774;29;20032;-90
2023/04/19 09:27:28;;;;;;;7.50;2.88;;;;;;;12.94;48.76;102469.13;4917681;29;20091;-94
2023/04/19 09:29:59;;;;;;;5.45;2.58;;;;;;;13.10;48.82;102468.44;4901133;29;20713;-92
2023/04/19 09:32:25;;;;;;;3.60;2.80;;;;;;;12.99;47.49;102480.00;4919166;29;20032;-91
2023/04/19 09:34:59;;;;;;;6.23;3.40;;;;;;;12.96;47.44;102473.22;4919900;29;20308;-92
2023/04/19 09:37:26;;;;;;;4.95;2.97;;;;;;;12.96;46.70;102475.09;4903170;29;20051;-91
2023/04/19 09:39:51;;;;;;;4.57;2.88;;;;;;;13.00;47.40;102478.94;4917891;29;20024;-88
2023/04/19 09:42:21;;;;;;;7.97;3.00;;;;;;;13.03;47.21;102471.25;4917650;29;20076;-91
2023/04/19 09:45:06;;;;;;;7.22;2.90;;;;;;;13.19;49.53;102466.22;4919105;29;20024;-91
2023/04/19 09:47:33;;;;;;;4.97;2.80;;;;;;;13.22;47.14;102468.44;4917966;29;20036;-89
2023/04/19 09:50:09;;;;;;;6.37;2.87;;;;;;;13.35;47.65;102471.91;4901302;29;20036;-90
2023/04/19 09:52:35;;;;;;;7.40;3.30;;;;;;;13.22;46.39;102454.13;4918489;29;21033;-92
2023/04/19 09:55:03;;;;;;;4.38;2.90;;;;;;;13.29;48.13;102458.34;4903397;29;20539;-86
2023/04/19 09:57:32;;;;;;;5.00;3.17;;;;;;;13.47;48.65;102473.56;4915759;29;20024;-91
2023/04/19 10:00:00;;;;;;;5.43;2.65;;;;;;;13.53;45.08;102471.81;4914176;29;20063;-87
2023/04/19 10:02:31;;;;;;;5.40;3.13;;;;;;;13.52;45.55;102474.72;4917284;29;20543;-87
2023/04/19 10:04:58;;;;;;;6.03;2.63;;;;;;;13.39;44.26;102465.00;4918245;29;20123;-88
2023/04/19 10:07:25;;;;;;;5.47;3.00;;;;;;;13.45;44.31;102470.31;4901105;29;20064;-89
2023/04/19 10:09:54;;;;;;;4.30;2.78;;;;;;;13.56;45.27;102468.63;4918199;29;20028;-91
2023/04/19 10:12:25;;;;;;;3.65;2.25;;;;;;;13.61;44.51;102459.84;4916650;29;20056;-88
2023/04/19 10:14:53;;;;;;;5.97;2.70;;;;;;;13.73;44.35;102463.31;4917301;29;20535;-90
2023/04/19 10:17:21;;;;;;;8.67;3.10;;;;;;;13.63;43.82;102466.63;4920907;29;20352;-92
2023/04/19 10:25:09;;;;;;;6.53;2.00;;;;;;;13.52;43.06;102453.16;4916324;29;20055;-89
2023/04/19 10:27:34;;;;;;;5.15;2.35;;;;;;;13.52;43.16;102447.78;4919146;29;20012;-92
2023/04/19 10:30:02;;;;;;;4.10;2.10;;;;;;;13.68;43.24;102459.69;4918802;29;20009;-92
2023/04/19 10:32:29;;;;;;;7.68;2.00;;;;;;;13.68;41.23;102454.31;4918759;29;20110;-90
2023/04/19 10:35:01;;;;;;;8.00;2.13;;;;;;;13.64;41.38;102459.38;4917119;29;20091;-92
2023/04/19 10:37:26;;;;;;;7.00;1.80;;;;;;;13.70;39.69;102444.94;4912340;29;20044;-92
2023/04/19 10:39:52;;;;;;;3.30;2.00;;;;;;;13.59;40.45;102456.56;4908769;29;20064;-92
2023/04/19 10:42:18;;;;;;;4.67;1.90;;;;;;;13.62;41.22;102458.78;4911423;29;20493;-90
2023/04/19 10:45:20;;;;;;;4.82;1.92;;;;;;;13.71;41.04;102457.34;4906223;29;20111;-93
2023/04/19 10:47:46;;;;;;;5.07;1.58;;;;;;;13.72;39.01;102434.72;4899989;29;20115;-89
2023/04/19 10:50:15;;;;;;;7.03;1.90;;;;;;;13.78;40.51;102441.06;4901864;29;20056;-90
2023/04/19 10:52:40;;;;;;;4.05;1.60;;;;;;;13.81;38.69;102440.56;4882369;29;20430;-90
2023/04/19 10:55:05;;;;;;;2.00;1.57;;;;;;;13.87;38.80;102446.88;4891675;29;20032;-91
2023/04/19 10:58:01;;;;;;;4.22;1.38;;;;;;;13.95;38.14;102441.09;4887288;29;20041;-90
2023/04/19 11:00:30;;;;;;;6.77;1.73;;;;;;;13.98;38.16;102437.91;4881250;29;20021;-90
2023/04/19 11:02:55;;;;;;;7.63;1.60;;;;;;;14.11;37.39;102433.28;4895182;29;20353;-90
2023/04/19 11:05:21;;;;;;;2.85;1.10;;;;;;;14.11;37.55;102435.97;4898698;29;20468;-91
2023/04/19 11:31:03;;;;;;;3.92;1.80;;;;;;;14.46;38.95;102419.59;5068376;23;20064;-89
2023/04/19 11:33:33;;;;;;;4.73;2.13;;;;;;;14.51;39.53;102411.59;4916105;29;20397;-89
2023/04/19 11:35:58;;;;;;;5.00;2.30;;;;;;;14.61;40.17;102419.00;4916450;29;20788;-88
2023/04/19 11:38:26;;;;;;;2.40;1.70;;;;;;;14.71;39.23;102420.28;4899374;29;20088;-89
2023/04/19 11:41:02;;;;;;;3.58;2.00;;;;;;;14.68;40.69;102421.59;4901695;29;20040;-89
2023/04/19 11:43:32;;;;;;;4.95;1.98;;;;;;;14.79;38.32;102414.47;4897123;29;20036;-89
2023/04/19 11:46:05;;;;;;;4.38;2.10;;;;;;;14.73;38.82;102397.38;4886235;29;20024;-89
2023/04/19 11:48:31;;;;;;;2.73;1.80;;;;;;;14.74;38.54;102396.31;4900303;29;20075;-89
2023/04/19 11:51:03;;;;;;;3.03;1.60;;;;;;;14.95;38.60;102410.09;4882468;29;20749;-88
2023/04/19 11:53:31;;;;;;;4.63;2.20;;;;;;;14.97;38.48;102394.47;4903219;29;20033;-89
2023/04/19 11:56:03;;;;;;;3.00;1.75;;;;;;;15.07;37.93;102396.50;4912024;29;20028;-89
2023/04/19 11:58:30;;;;;;;5.70;2.00;;;;;;;15.12;37.64;102383.88;4916409;29;20027;-89
2023/04/19 12:01:05;;;;;;;5.65;1.95;;;;;;;15.18;37.31;102373.16;4878714;29;20441;-88
2023/04/19 12:03:30;;;;;;;3.87;2.10;;;;;;;15.20;36.33;102374.50;4884778;29;20601;-88
2023/04/19 12:05:57;;;;;;;2.20;2.00;;;;;;;15.10;35.99;102371.69;4907344;29;20355;-88
2023/04/19 12:08:35;;;;;;;2.88;1.90;;;;;;;15.11;34.62;102363.34;4900499;29;20632;-88
2023/04/19 12:11:02;;;;;;;5.20;1.80;;;;;;;15.11;32.95;102371.44;4899098;29;20055;-88
2023/04/19 12:15:53;;;;;;;5.10;1.58;;;;;;;15.13;32.50;102360.41;5809137;23;20431;-90
2023/04/19 12:18:18;;;;;;;2.67;1.80;;;;;;;15.34;32.00;102357.94;4900116;29;20472;-88
2023/04/19 12:20:45;;;;;;;5.83;1.77;;;;;;;15.45;33.29;102348.88;4894083;29;20037;-90